createdAt,value
2022-12-23T00:00:43.709Z,76307.09
2022-12-23T00:03:25.438Z,76309.13
2022-12-23T00:05:52.797Z,76317.22
2022-12-23T00:08:20.438Z,76317.22
2022-12-23T00:10:49.084Z,76311.13
2022-12-23T00:13:35.472Z,76305.06
2022-12-23T00:16:08.721Z,76301.00
2022-12-23T00:18:35.738Z,76294.91
2022-12-23T00:21:08.979Z,76307.09
2022-12-23T00:23:39.011Z,76280.72
2022-12-23T00:26:07.711Z,76280.72
2022-12-23T00:28:34.611Z,76284.78
2022-12-23T00:31:04.996Z,76288.84
2022-12-23T00:33:35.220Z,76288.84
2022-12-23T00:36:03.040Z,76280.72
2022-12-23T00:38:48.369Z,76280.72
2022-12-23T00:41:36.853Z,76268.56
2022-12-23T00:44:05.080Z,76272.63
2022-12-23T00:46:32.550Z,76272.63
2022-12-23T00:49:18.265Z,76262.50
2022-12-23T00:51:45.789Z,76260.47
2022-12-23T00:54:12.740Z,76256.41
2022-12-23T00:56:39.950Z,76268.56
2022-12-23T00:59:07.000Z,76262.50
2022-12-23T01:01:53.018Z,76264.53
2022-12-23T01:04:38.697Z,76268.56
2022-12-23T01:07:06.708Z,76272.63
2022-12-23T01:09:34.444Z,76266.53
2022-12-23T01:12:02.061Z,76264.53
2022-12-23T01:14:29.661Z,76268.56
2022-12-23T01:16:57.102Z,76260.47
2022-12-23T01:19:24.482Z,76264.53
2022-12-23T01:21:51.744Z,76272.63
2022-12-23T01:24:19.173Z,76264.53
2022-12-23T01:26:46.364Z,76268.56
2022-12-23T01:29:13.264Z,76272.63
2022-12-23T01:31:40.655Z,76276.69
2022-12-23T01:34:07.692Z,76272.63
2022-12-23T01:36:34.859Z,76276.69
2022-12-23T01:39:02.032Z,76270.59
2022-12-23T01:41:50.825Z,76272.63
2022-12-23T01:45:09.029Z,76276.69
2022-12-23T01:47:39.511Z,76276.69
2022-12-23T01:50:12.862Z,76268.56
2022-12-23T01:53:08.878Z,76280.72
2022-12-23T01:55:44.499Z,76272.63
2022-12-23T01:58:16.767Z,76280.72
2022-12-23T02:01:02.600Z,76268.56
2022-12-23T02:03:42.360Z,76272.63
2022-12-23T02:07:04.155Z,76272.63
2022-12-23T02:09:34.375Z,76276.69
2022-12-23T02:12:26.062Z,76272.63
2022-12-23T02:15:26.762Z,76280.72
2022-12-23T02:18:31.162Z,76284.78
2022-12-23T02:21:20.785Z,76280.72
2022-12-23T02:24:02.784Z,76284.78
2022-12-23T02:26:47.857Z,76284.78
2022-12-23T02:29:52.177Z,76288.84
2022-12-23T02:32:43.998Z,76288.84
2022-12-23T02:35:19.093Z,76294.91
2022-12-23T02:38:09.941Z,76290.88
2022-12-23T02:40:57.764Z,76284.78
2022-12-23T02:43:33.760Z,76278.72
2022-12-23T02:46:10.286Z,76278.72
2022-12-23T02:48:45.723Z,76276.69
2022-12-23T02:51:15.769Z,76292.91
2022-12-23T02:53:49.763Z,76292.91
2022-12-23T02:56:20.203Z,76280.72
2022-12-23T02:58:54.594Z,76282.75
2022-12-23T03:01:24.924Z,76288.84
2022-12-23T03:03:51.877Z,76276.69
2022-12-23T03:06:41.426Z,76292.91
2022-12-23T03:09:08.826Z,76280.72
2022-12-23T03:11:51.190Z,76280.72
2022-12-23T03:14:36.490Z,76286.81
2022-12-23T03:17:31.528Z,76288.84
2022-12-23T03:20:24.596Z,76276.69
2022-12-23T03:23:08.213Z,76278.72
2022-12-23T03:25:45.377Z,76280.72
2022-12-23T03:28:27.008Z,76280.72
2022-12-23T03:30:59.181Z,76276.69
2022-12-23T03:33:39.731Z,76280.72
2022-12-23T03:36:15.743Z,76262.50
2022-12-23T03:38:45.156Z,76272.63
2022-12-23T03:41:18.354Z,76268.56
2022-12-23T03:43:54.716Z,76272.63
2022-12-23T03:46:31.090Z,76284.78
2022-12-23T03:49:03.547Z,76268.56
2022-12-23T03:51:38.476Z,76268.56
2022-12-23T03:54:17.298Z,76264.53
2022-12-23T03:56:51.083Z,76272.63
2022-12-23T03:59:23.476Z,76264.53
2022-12-23T04:02:23.612Z,76264.53
2022-12-23T04:05:03.236Z,76264.53
2022-12-23T04:07:33.075Z,76262.50
2022-12-23T04:10:00.647Z,76266.53
2022-12-23T04:12:30.119Z,76272.63
2022-12-23T04:14:57.682Z,76272.63
2022-12-23T04:17:24.719Z,76268.56
2022-12-23T04:19:53.003Z,76268.56
2022-12-23T04:22:19.895Z,76272.63
2022-12-23T04:24:47.050Z,76268.56
2022-12-23T04:27:15.534Z,76272.63
2022-12-23T04:29:43.674Z,76268.56
2022-12-23T04:32:10.916Z,76280.72
2022-12-23T04:34:38.363Z,76272.63
2022-12-23T04:37:05.420Z,76276.69
2022-12-23T04:39:32.744Z,76280.72
2022-12-23T04:41:59.654Z,76292.91
2022-12-23T04:44:26.850Z,76280.72
2022-12-23T04:46:53.894Z,76284.78
2022-12-23T04:49:21.080Z,76284.78
2022-12-23T04:51:48.018Z,76280.72
2022-12-23T04:54:15.247Z,76288.84
2022-12-23T04:56:42.173Z,76292.91
2022-12-23T04:59:10.812Z,76294.91
2022-12-23T05:01:37.758Z,76296.94
2022-12-23T05:04:05.328Z,76305.06
2022-12-23T05:06:32.333Z,76296.94
2022-12-23T05:08:59.507Z,76309.13
2022-12-23T05:11:26.475Z,76317.22
2022-12-23T05:13:53.721Z,76321.28
2022-12-23T05:16:20.740Z,76321.28
2022-12-23T05:18:47.987Z,76325.31
2022-12-23T05:21:14.929Z,76325.31
2022-12-23T05:23:42.496Z,76321.28
2022-12-23T05:26:10.584Z,76329.38
2022-12-23T05:28:38.362Z,76321.28
2022-12-23T05:31:07.600Z,76341.53
2022-12-23T05:33:35.664Z,76349.66
2022-12-23T05:36:03.802Z,76357.75
2022-12-23T05:38:31.754Z,76351.69
2022-12-23T05:40:59.190Z,76357.75
2022-12-23T05:43:26.463Z,76365.88
2022-12-23T05:45:53.733Z,76369.91
2022-12-23T05:48:21.096Z,76357.75
2022-12-23T05:50:52.616Z,76367.88
2022-12-23T05:53:20.746Z,76371.94
2022-12-23T05:55:48.011Z,76382.09
2022-12-23T05:58:16.674Z,76378.03
2022-12-23T06:00:43.896Z,76386.13
2022-12-23T06:03:12.017Z,76388.16
2022-12-23T06:05:40.210Z,76382.09
2022-12-23T06:08:07.401Z,76386.13
2022-12-23T06:10:34.305Z,76388.16
2022-12-23T06:13:01.468Z,76386.13
2022-12-23T06:15:28.378Z,76390.19
2022-12-23T06:17:56.201Z,76410.47
2022-12-23T06:20:23.091Z,76406.41
2022-12-23T06:22:50.296Z,76418.56
2022-12-23T06:25:17.351Z,76422.63
2022-12-23T06:27:44.600Z,76428.69
2022-12-23T06:30:12.592Z,76434.78
2022-12-23T06:32:40.184Z,76434.78
2022-12-23T06:35:08.475Z,76438.84
2022-12-23T06:37:35.919Z,76440.88
2022-12-23T06:40:03.213Z,76430.72
2022-12-23T06:42:30.450Z,76430.72
2022-12-23T06:44:57.317Z,76430.72
2022-12-23T06:47:24.534Z,76438.84
2022-12-23T06:49:51.454Z,76426.69
2022-12-23T06:52:18.689Z,76430.72
2022-12-23T06:54:45.605Z,76434.78
2022-12-23T06:57:13.042Z,76434.78
2022-12-23T06:59:39.894Z,76438.84
2022-12-23T07:02:09.604Z,76451.00
2022-12-23T07:04:36.699Z,76451.00
2022-12-23T07:07:03.966Z,76451.00
2022-12-23T07:09:30.872Z,76459.09
2022-12-23T07:11:58.126Z,76467.22
2022-12-23T07:14:24.979Z,76467.22
2022-12-23T07:16:52.327Z,76461.13
2022-12-23T07:19:19.280Z,76451.00
2022-12-23T07:21:46.445Z,76455.06
2022-12-23T07:24:13.300Z,76463.16
2022-12-23T07:26:40.510Z,76455.06
2022-12-23T07:29:07.792Z,76459.09
2022-12-23T07:31:39.295Z,76446.94
2022-12-23T07:34:07.917Z,76442.91
2022-12-23T07:36:35.213Z,76436.81
2022-12-23T07:39:02.202Z,76434.78
2022-12-23T07:41:29.541Z,76434.78
2022-12-23T07:44:05.225Z,76434.78
2022-12-23T07:46:32.577Z,76430.72
2022-12-23T07:48:59.810Z,76428.69
2022-12-23T07:51:27.085Z,76414.50
2022-12-23T07:53:53.968Z,76412.47
2022-12-23T07:56:21.421Z,76414.50
2022-12-23T07:58:53.010Z,76416.53
2022-12-23T08:01:21.004Z,76422.63
2022-12-23T08:03:48.593Z,76428.69
2022-12-23T08:06:16.784Z,76420.59
2022-12-23T08:08:46.151Z,76426.69
2022-12-23T08:11:15.151Z,76412.47
2022-12-23T08:13:43.833Z,76430.72
2022-12-23T08:16:12.508Z,76422.63
2022-12-23T08:18:41.022Z,76434.78
2022-12-23T08:21:19.084Z,76430.72
2022-12-23T08:23:47.451Z,76422.63
2022-12-23T08:26:17.542Z,76426.69
2022-12-23T08:28:45.493Z,76420.59
2022-12-23T08:31:17.788Z,76418.56
2022-12-23T08:33:49.076Z,76422.63
2022-12-23T08:36:22.818Z,76412.47
2022-12-23T08:38:55.299Z,76412.47
2022-12-23T08:41:25.835Z,76406.41
2022-12-23T08:43:53.017Z,76398.28
2022-12-23T08:46:20.615Z,76396.28
2022-12-23T08:48:49.837Z,76386.13
2022-12-23T08:51:20.176Z,76386.13
2022-12-23T08:53:48.293Z,76378.03
2022-12-23T08:56:20.697Z,76373.97
2022-12-23T08:58:51.315Z,76359.78
2022-12-23T09:01:20.393Z,76341.53
2022-12-23T09:03:47.912Z,76337.50
2022-12-23T09:06:29.907Z,76321.28
2022-12-23T09:08:58.024Z,76313.16
2022-12-23T09:11:27.537Z,76305.06
2022-12-23T09:13:55.400Z,76305.06
2022-12-23T09:16:23.614Z,76305.06
2022-12-23T09:18:50.853Z,76301.00
2022-12-23T09:21:21.245Z,76305.06
2022-12-23T09:23:48.638Z,76292.91
2022-12-23T09:26:25.460Z,76284.78
2022-12-23T09:28:52.725Z,76262.50
2022-12-23T09:31:21.040Z,76252.34
2022-12-23T09:33:50.528Z,76248.31
2022-12-23T09:36:18.191Z,76252.34
2022-12-23T09:38:45.412Z,76256.41
2022-12-23T09:41:33.068Z,76250.34
2022-12-23T09:44:35.161Z,76236.16
2022-12-23T09:47:05.929Z,76228.03
2022-12-23T09:49:34.391Z,76244.25
2022-12-23T09:52:05.348Z,76219.94
2022-12-23T09:55:01.341Z,76219.94
2022-12-23T09:57:42.650Z,76219.94
2022-12-23T10:00:18.238Z,76223.97
2022-12-23T10:02:51.506Z,76219.94
2022-12-23T10:05:31.360Z,76215.88
2022-12-23T10:08:03.994Z,76211.81
2022-12-23T10:10:30.817Z,76219.94
2022-12-23T10:13:02.105Z,76223.97
2022-12-23T10:15:47.406Z,76223.97
2022-12-23T10:18:45.095Z,76240.19
2022-12-23T10:21:20.676Z,76236.16
2022-12-23T10:23:52.360Z,76248.31
2022-12-23T10:26:43.748Z,76248.31
2022-12-23T10:29:23.891Z,76246.28
2022-12-23T10:32:05.461Z,76254.38
2022-12-23T10:34:39.745Z,76252.34
2022-12-23T10:37:29.904Z,76244.25
2022-12-23T10:40:15.914Z,76244.25
2022-12-23T10:43:02.119Z,76234.13
2022-12-23T10:45:32.279Z,76230.06
2022-12-23T10:48:23.486Z,76228.03
2022-12-23T10:51:26.128Z,76236.16
2022-12-23T10:54:05.108Z,76232.09
2022-12-23T10:56:32.605Z,76236.16
2022-12-23T10:59:00.978Z,76236.16
2022-12-23T11:01:31.110Z,76236.16
2022-12-23T11:04:06.889Z,76232.09
2022-12-23T11:06:39.497Z,76228.03
2022-12-23T11:09:12.743Z,76219.94
2022-12-23T11:12:04.377Z,76232.09
2022-12-23T11:14:35.503Z,76236.16
2022-12-23T11:17:05.686Z,76234.13
2022-12-23T11:19:32.903Z,76236.16
2022-12-23T11:22:01.129Z,76232.09
2022-12-23T11:24:36.608Z,76232.09
2022-12-23T11:27:14.039Z,76228.03
2022-12-23T11:29:47.066Z,76223.97
2022-12-23T11:32:25.560Z,76215.88
2022-12-23T11:34:54.171Z,76217.91
2022-12-23T11:37:40.992Z,76203.72
2022-12-23T11:40:24.360Z,76205.75
2022-12-23T11:43:18.192Z,76215.88
2022-12-23T11:45:45.189Z,76203.72
2022-12-23T11:48:30.973Z,76207.78
2022-12-23T11:51:01.399Z,76207.78
2022-12-23T11:53:29.769Z,76203.72
2022-12-23T11:56:02.381Z,76203.72
2022-12-23T11:58:32.844Z,76211.81
2022-12-23T12:01:20.620Z,76207.78
2022-12-23T12:03:53.941Z,76221.94
2022-12-23T12:06:22.622Z,76219.94
2022-12-23T12:08:53.267Z,76228.03
2022-12-23T12:11:43.930Z,76236.16
2022-12-23T12:14:21.770Z,76234.13
2022-12-23T12:16:58.003Z,76223.97
2022-12-23T12:19:31.687Z,76219.94
2022-12-23T12:22:05.201Z,76211.81
2022-12-23T12:24:39.436Z,76211.81
2022-12-23T12:27:08.629Z,76207.78
2022-12-23T12:29:48.932Z,76195.59
2022-12-23T12:32:38.893Z,76203.72
2022-12-23T12:35:14.002Z,76191.56
2022-12-23T12:37:43.974Z,76195.59
2022-12-23T12:40:14.222Z,76199.66
2022-12-23T12:42:44.472Z,76207.78
2022-12-23T12:45:22.135Z,76207.78
2022-12-23T12:48:18.183Z,76213.84
2022-12-23T12:51:08.786Z,76209.78
2022-12-23T12:53:40.624Z,76223.97
2022-12-23T12:56:20.714Z,76207.78
2022-12-23T12:58:48.831Z,76207.78
2022-12-23T13:01:31.058Z,76199.66
2022-12-23T13:04:04.011Z,76207.78
2022-12-23T13:07:12.933Z,76215.88
2022-12-23T13:10:23.588Z,76209.78
2022-12-23T13:12:53.654Z,76211.81
2022-12-23T13:15:28.457Z,76207.78
2022-12-23T13:18:25.284Z,76207.78
2022-12-23T13:21:03.507Z,76211.81
2022-12-23T13:24:10.133Z,76205.75
2022-12-23T13:26:43.613Z,76203.72
2022-12-23T13:29:58.005Z,76199.66
2022-12-23T13:32:43.904Z,76191.56
2022-12-23T13:35:20.278Z,76189.53
2022-12-23T13:38:29.895Z,76187.50
2022-12-23T13:40:57.161Z,76187.50
2022-12-23T13:43:26.329Z,76179.38
2022-12-23T13:45:55.582Z,76183.44
2022-12-23T13:48:32.358Z,76175.34
2022-12-23T13:51:10.698Z,76175.34
2022-12-23T13:54:03.965Z,76169.25
2022-12-23T13:57:01.050Z,76163.19
2022-12-23T13:59:39.801Z,76163.19
2022-12-23T14:02:57.623Z,76159.13
2022-12-23T14:05:30.901Z,76155.06
2022-12-23T14:08:05.350Z,76151.00
2022-12-23T14:10:33.269Z,76155.06
2022-12-23T14:13:07.259Z,76146.97
2022-12-23T14:15:46.761Z,76142.91
2022-12-23T14:18:16.603Z,76146.97
2022-12-23T14:21:32.557Z,76169.25
2022-12-23T14:24:10.017Z,76132.78
2022-12-23T14:26:59.910Z,76134.78
2022-12-23T14:30:06.537Z,76130.75
2022-12-23T14:32:47.944Z,76134.78
2022-12-23T14:35:16.416Z,76134.78
2022-12-23T14:38:03.767Z,76138.84
2022-12-23T14:40:39.873Z,76151.00
2022-12-23T14:43:27.797Z,76155.06
2022-12-23T14:45:55.989Z,76155.06
2022-12-23T14:48:48.101Z,76159.13
2022-12-23T14:51:31.608Z,76157.09
2022-12-23T14:53:58.611Z,76155.06
2022-12-23T14:56:40.497Z,76159.13
2022-12-23T14:59:20.304Z,76155.06
2022-12-23T15:01:51.583Z,76159.13
2022-12-23T15:04:36.684Z,76159.13
2022-12-23T15:07:13.324Z,76159.13
2022-12-23T15:10:01.142Z,76155.06
2022-12-23T15:12:43.648Z,76155.06
2022-12-23T15:15:31.036Z,76146.97
2022-12-23T15:18:10.644Z,76159.13
2022-12-23T15:20:37.852Z,76157.09
2022-12-23T15:23:11.397Z,76163.19
2022-12-23T15:25:45.991Z,76155.06
2022-12-23T15:28:19.798Z,76157.09
2022-12-23T15:30:51.484Z,76146.97
2022-12-23T15:36:12.355Z,76157.09
2022-12-23T15:38:39.734Z,76151.00
2022-12-23T15:41:15.895Z,76151.00
2022-12-23T15:43:44.038Z,76142.91
2022-12-23T15:46:28.579Z,76146.97
2022-12-23T15:48:56.937Z,76146.97
2022-12-23T15:54:39.017Z,76134.78
2022-12-23T15:57:06.365Z,76134.78
2022-12-23T15:59:38.863Z,76138.84
2022-12-23T16:05:32.823Z,76144.94
2022-12-23T16:08:29.742Z,76140.88
2022-12-23T16:11:00.889Z,76134.78
2022-12-23T16:13:27.988Z,76138.84
2022-12-23T16:15:55.243Z,76136.81
2022-12-23T16:18:31.744Z,76140.88
2022-12-23T16:21:02.259Z,76134.78
2022-12-23T16:23:30.778Z,76128.72
2022-12-23T16:26:00.084Z,76122.63
2022-12-23T16:28:41.690Z,76126.69
2022-12-23T16:31:10.726Z,76126.69
2022-12-23T16:33:43.827Z,76122.63
2022-12-23T16:36:19.952Z,76122.63
2022-12-23T16:38:48.311Z,76122.63
2022-12-23T16:41:15.526Z,76118.59
2022-12-23T16:43:49.604Z,76118.59
2022-12-23T16:46:22.335Z,76114.53
2022-12-23T16:48:56.010Z,76110.47
2022-12-23T16:51:23.873Z,76114.53
2022-12-23T16:53:52.836Z,76102.38
2022-12-23T16:56:22.149Z,76114.53
2022-12-23T16:58:49.405Z,76112.50
2022-12-23T17:01:26.157Z,76106.41
2022-12-23T17:03:54.066Z,76110.47
2022-12-23T17:06:22.156Z,76106.41
2022-12-23T17:08:49.696Z,76106.41
2022-12-23T17:11:25.942Z,76114.53
2022-12-23T17:13:57.895Z,76114.53
2022-12-23T17:16:29.066Z,76100.34
2022-12-23T17:18:56.134Z,76102.38
2022-12-23T17:21:36.733Z,76098.31
2022-12-23T17:24:11.410Z,76098.31
2022-12-23T17:26:38.823Z,76098.31
2022-12-23T17:29:06.344Z,76106.41
2022-12-23T17:31:34.475Z,76090.22
2022-12-23T17:34:02.511Z,76090.22
2022-12-23T17:36:30.295Z,76096.28
2022-12-23T17:38:57.382Z,76098.31
2022-12-23T17:41:27.408Z,76086.16
2022-12-23T17:43:54.480Z,76086.16
2022-12-23T17:46:21.976Z,76090.22
2022-12-23T17:48:49.185Z,76090.22
2022-12-23T17:51:21.670Z,76094.25
2022-12-23T17:53:55.160Z,76088.19
2022-12-23T17:56:26.495Z,76090.22
2022-12-23T17:58:53.509Z,76090.22
2022-12-23T18:01:29.963Z,76096.28
2022-12-23T18:03:59.146Z,76106.41
2022-12-23T18:06:28.820Z,76102.38
2022-12-23T18:08:59.532Z,76102.38
2022-12-23T18:11:50.609Z,76098.31
2022-12-23T18:14:24.472Z,76102.38
2022-12-23T18:16:51.735Z,76098.31
2022-12-23T18:19:20.352Z,76110.47
2022-12-23T18:21:47.767Z,76104.41
2022-12-23T18:24:15.777Z,76110.47
2022-12-23T18:26:43.640Z,76116.56
2022-12-23T18:29:10.628Z,76106.41
2022-12-23T18:31:50.599Z,76110.47
2022-12-23T18:34:18.636Z,76114.53
2022-12-23T18:36:48.320Z,76114.53
2022-12-23T18:39:15.548Z,76118.59
2022-12-23T18:41:43.102Z,76120.63
2022-12-23T18:44:19.460Z,76134.78
2022-12-23T18:46:48.001Z,76136.81
2022-12-23T18:49:15.069Z,76146.97
2022-12-23T18:51:42.397Z,76155.06
2022-12-23T18:54:14.277Z,76146.97
2022-12-23T18:56:41.688Z,76163.19
2022-12-23T18:59:27.380Z,76173.31
2022-12-23T19:01:56.947Z,76169.25
2022-12-23T19:04:23.885Z,76171.28
2022-12-23T19:06:51.201Z,76183.44
2022-12-23T19:09:21.254Z,76183.44
2022-12-23T19:11:50.736Z,76187.50
2022-12-23T19:14:17.623Z,76199.66
2022-12-23T19:16:50.843Z,76203.72
2022-12-23T19:19:19.583Z,76211.81
2022-12-23T19:21:47.052Z,76223.97
2022-12-23T19:24:14.124Z,76223.97
2022-12-23T19:26:41.913Z,76228.03
2022-12-23T19:29:09.124Z,76240.19
2022-12-23T19:31:36.308Z,76238.16
2022-12-23T19:34:03.229Z,76244.25
2022-12-23T19:36:30.944Z,76248.31
2022-12-23T19:38:58.555Z,76256.41
2022-12-23T19:41:26.834Z,76256.41
2022-12-23T19:43:54.050Z,76264.53
2022-12-23T19:46:21.321Z,76272.63
2022-12-23T19:48:54.768Z,76272.63
2022-12-23T19:51:22.004Z,76276.69
2022-12-23T19:53:51.398Z,76268.56
2022-12-23T19:56:23.551Z,76292.91
2022-12-23T19:58:51.167Z,76288.84
2022-12-23T20:01:24.230Z,76288.84
2022-12-23T20:03:53.201Z,76305.06
2022-12-23T20:06:25.162Z,76313.16
2022-12-23T20:08:58.033Z,76305.06
2022-12-23T20:11:30.933Z,76319.25
2022-12-23T20:13:59.254Z,76321.28
2022-12-23T20:16:26.991Z,76321.28
2022-12-23T20:18:54.705Z,76325.31
2022-12-23T20:21:40.131Z,76329.38
2022-12-23T20:24:07.848Z,76325.31
2022-12-23T20:26:35.292Z,76327.34
2022-12-23T20:29:03.202Z,76325.31
2022-12-23T20:31:33.840Z,76329.38
2022-12-23T20:34:03.897Z,76335.47
2022-12-23T20:36:33.379Z,76337.50
2022-12-23T20:39:02.207Z,76341.53
2022-12-23T20:41:31.200Z,76337.50
2022-12-23T20:46:46.297Z,76337.50
2022-12-23T20:49:13.526Z,76333.44
2022-12-23T20:51:40.499Z,76333.44
2022-12-23T20:54:07.919Z,76341.53
2022-12-23T20:56:34.793Z,76333.44
2022-12-23T20:59:03.907Z,76329.38
2022-12-23T21:01:40.085Z,76329.38
2022-12-23T21:04:13.020Z,76333.44
2022-12-23T21:06:40.211Z,76333.44
2022-12-23T21:09:09.640Z,76337.50
2022-12-23T21:11:39.358Z,76337.50
2022-12-23T21:14:08.051Z,76333.44
2022-12-23T21:16:37.098Z,76341.53
2022-12-23T21:19:07.763Z,76341.53
2022-12-23T21:21:35.229Z,76343.56
2022-12-23T21:24:04.919Z,76339.50
2022-12-23T21:26:33.984Z,76345.59
2022-12-23T21:29:03.904Z,76345.59
2022-12-23T21:31:32.775Z,76341.53
2022-12-23T21:34:00.368Z,76341.53
2022-12-23T21:36:31.242Z,76341.53
2022-12-23T21:39:00.024Z,76345.59
2022-12-23T21:41:30.611Z,76357.75
2022-12-23T21:43:59.387Z,76349.66
2022-12-23T21:46:27.930Z,76353.72
2022-12-23T21:48:56.436Z,76341.53
2022-12-23T21:51:36.926Z,76357.75
2022-12-23T21:54:07.306Z,76353.72
2022-12-23T21:56:34.269Z,76353.72
2022-12-23T21:59:04.873Z,76353.72
2022-12-23T22:01:32.609Z,76365.88
2022-12-23T22:04:00.351Z,76365.88
2022-12-23T22:06:30.065Z,76382.09
2022-12-23T22:08:58.629Z,76378.03
2022-12-23T22:11:28.590Z,76382.09
2022-12-23T22:13:59.704Z,76373.97
2022-12-23T22:16:29.243Z,76378.03
2022-12-23T22:18:58.921Z,76378.03
2022-12-23T22:21:27.919Z,76373.97
2022-12-23T22:23:56.880Z,76384.09
2022-12-23T22:26:26.851Z,76376.00
2022-12-23T22:28:57.484Z,76369.91
2022-12-23T22:31:32.377Z,76373.97
2022-12-23T22:34:00.179Z,76373.97
2022-12-23T22:36:27.778Z,76367.88
2022-12-23T22:38:57.420Z,76369.91
2022-12-23T22:41:25.545Z,76378.03
2022-12-23T22:43:52.747Z,76384.09
2022-12-23T22:46:20.111Z,76382.09
2022-12-23T22:48:47.525Z,76378.03
2022-12-23T22:51:21.269Z,76424.66
2022-12-23T22:53:49.013Z,76376.00
2022-12-23T22:56:17.719Z,76376.00
2022-12-23T22:58:45.375Z,76382.09
2022-12-23T23:01:28.524Z,76376.00
2022-12-23T23:04:00.510Z,76365.88
2022-12-23T23:06:38.703Z,76369.91
2022-12-23T23:09:07.767Z,76373.97
2022-12-23T23:11:35.127Z,76363.84
2022-12-23T23:14:03.423Z,76376.00
2022-12-23T23:16:30.648Z,76382.09
2022-12-23T23:18:59.080Z,76378.03
2022-12-23T23:21:26.607Z,76382.09
2022-12-23T23:23:53.983Z,76382.09
2022-12-23T23:26:21.097Z,76390.19
2022-12-23T23:28:48.429Z,76384.09
2022-12-23T23:34:02.920Z,76373.97
2022-12-23T23:36:29.971Z,76367.88
2022-12-23T23:38:57.465Z,76373.97
2022-12-23T23:41:24.492Z,76373.97
2022-12-23T23:43:52.299Z,76382.09
2022-12-23T23:46:19.463Z,76382.09
2022-12-23T23:48:46.805Z,76386.13
2022-12-23T23:51:13.699Z,76392.22
2022-12-23T23:53:41.072Z,76386.13
2022-12-23T23:56:08.884Z,76390.19
2022-12-23T23:58:37.071Z,76386.13
